Terminal Aerodrome Forecast
Issued by NWS Duluth, MN

Home | Current Version | Previous Version | Text Only | Print | Product List | Glossary On
Versions: 1 2 3 4 5 6 7 8 9 10 11 12 13 14 15 16 17
000
FTUS43 KDLH 252300
TAFINL
TAF
KINL 252338Z 2600/2624 22006KT P6SM FEW024 OVC035
      TEMPO 2600/2602 5SM -TSRA BR BKN025CB BKN050
     FM260500 26004KT 6SM BR BKN014 OVC030
     FM260900 VRB03KT 6SM BR SCT022
     FM261300 23008KT P6SM SKC
     FM262000 23012KT P6SM VCSH SCT050 BKN100=

USA.gov is the U.S. government's official web portal to all federal, state and local government web resources and services.